| time (UTC) | temp F | wind direction | speed knots | gust knots | rain 1hr in | rain 24hr in | rain mn in | humidity % | barometer mb |
| 20260506044524 | 53 | 326 | 7.8 | 11.3 | 0.00 | 0.02 | 0.02 | 51 | 1010.2 |
| 20260506041555 | 54 | 360 | 8.7 | 19.1 | 0.00 | 0.02 | 0.02 | 48 | 1009.9 |
| 20260506040051 | 54 | 360 | 11.3 | 14.8 | 0.00 | 0.02 | 0.02 | 48 | 1009.6 |
| 20260506034529 | 55 | 360 | 10.4 | 15.6 | 0.00 | 0.02 | 0.02 | 47 | 1009.4 |
| 20260506033020 | 55 | 360 | 9.6 | 14.8 | 0.00 | 0.02 | 0.02 | 46 | 1008.9 |
| 20260506031533 | 56 | 360 | 7.8 | 14.8 | 0.00 | 0.02 | 0.02 | 45 | 1008.6 |
| 20260506030059 | 56 | 360 | 7.8 | 15.6 | 0.00 | 0.02 | 0.02 | 43 | 1008.2 |
| 20260506024531 | 57 | 360 | 13.0 | 19.1 | 0.00 | 0.02 | 0.02 | 41 | 1008.0 |
| 20260506023028 | 57 | 304 | 12.2 | 19.1 | 0.00 | 0.02 | 0.02 | 41 | 1007.6 |
| 20260506021506 | 58 | 360 | 11.3 | 18.2 | 0.00 | 0.02 | 0.02 | 39 | 1007.4 |
| 20260506020046 | 59 | 304 | 7.8 | 13.0 | 0.00 | 0.02 | 0.02 | 38 | 1007.2 |
| 20260506014512 | 60 | 360 | 11.3 | 18.2 | 0.00 | 0.02 | 0.02 | 37 | 1006.8 |
| 20260506013107 | 60 | 360 | 12.2 | 15.6 | 0.00 | 0.02 | 0.02 | 34 | 1006.8 |
| 20260506011525 | 60 | 360 | 12.2 | 18.2 | 0.00 | 0.02 | 0.02 | 34 | 1006.9 |
| 20260506010007 | 60 | 296 | 12.2 | 20.9 | 0.00 | 0.02 | 0.02 | 33 | 1006.6 |
| 20260506004508 | 61 | 360 | 14.8 | 26.1 | 0.00 | 0.02 | 0.02 | 31 | 1006.5 |
| 20260506003055 | 62 | 274 | 16.5 | 27.8 | 0.00 | 0.02 | 0.02 | 29 | 1006.5 |
| 20260506001539 | 62 | 265 | 15.6 | 26.1 | 0.00 | 0.02 | 0.02 | 31 | 1006.4 |
| 20260506000014 | 62 | 360 | 17.4 | 27.8 | 0.00 | 0.02 | 0.02 | 31 | 1006.4 |
| 20260505234553 | 63 | 266 | 15.6 | 24.3 | 0.00 | 0.02 | 0.02 | 33 | 1006.3 |
| 20260505233012 | 64 | 265 | 15.6 | 24.3 | 0.00 | 0.02 | 0.02 | 35 | 1006.3 |
| 20260505231608 | 65 | 289 | 21.7 | 27.8 | 0.00 | 0.02 | 0.02 | 33 | 1006.5 |
| 20260505230055 | 62 | 360 | 16.5 | 24.3 | 0.00 | 0.02 | 0.02 | 39 | 1006.6 |
| 20260505224527 | 63 | 360 | 18.2 | 27.8 | 0.00 | 0.02 | 0.02 | 39 | 1006.6 |
| 20260505223108 | 62 | 262 | 13.9 | 22.6 | 0.00 | 0.02 | 0.02 | 45 | 1006.7 |
| 20260505221604 | 62 | 257 | 13.0 | 23.5 | 0.00 | 0.02 | 0.02 | 44 | 1006.8 |
| 20260505220052 | 62 | 360 | 11.3 | 16.5 | 0.00 | 0.02 | 0.02 | 48 | 1007.4 |
| 20260505214601 | 61 | 360 | 11.3 | 16.5 | 0.00 | 0.02 | 0.02 | 53 | 1007.7 |
| 20260505213011 | 57 | 360 | 7.0 | 11.3 | 0.00 | 0.02 | 0.02 | 68 | 1008.2 |
| 20260505211608 | 55 | 265 | 8.7 | 13.0 | 0.00 | 0.02 | 0.02 | 67 | 1007.9 |
| 20260505210044 | 57 | 360 | 8.7 | 20.0 | 0.00 | 0.02 | 0.02 | 68 | 1007.8 |
| 20260505204527 | 60 | 331 | 11.3 | 19.1 | 0.00 | 0.02 | 0.02 | 49 | 1008.1 |
| 20260505203011 | 61 | 281 | 11.3 | 24.3 | 0.00 | 0.02 | 0.02 | 48 | 1008.1 |
| 20260505201537 | 62 | 360 | 13.9 | 20.9 | 0.00 | 0.02 | 0.02 | 46 | 1008.3 |
| 20260505200021 | 60 | 360 | 15.6 | 27.8 | 0.00 | 0.02 | 0.02 | 48 | 1008.6 |
| 20260505194605 | 59 | 360 | 12.2 | 21.7 | 0.00 | 0.02 | 0.02 | 52 | 1008.7 |
| 20260505193036 | 59 | 360 | 13.9 | 20.0 | 0.01 | 0.02 | 0.02 | 55 | 1008.6 |
| 20260505191612 | 58 | 360 | 13.9 | 20.0 | 0.01 | 0.02 | 0.02 | 58 | 1008.6 |
| 20260505190024 | 57 | 360 | 10.4 | 15.6 | 0.01 | 0.02 | 0.02 | 66 | 1009.1 |
| 20260505184552 | 56 | 360 | 9.6 | 19.1 | 0.01 | 0.02 | 0.02 | 65 | 1009.1 |
| 20260505183050 | 56 | 271 | 13.0 | 20.9 | 0.00 | 0.01 | 0.01 | 65 | 1009.0 |
| 20260505181506 | 55 | 323 | 8.7 | 18.2 | 0.00 | 0.01 | 0.01 | 68 | 1009.0 |
| 20260505180053 | 54 | 360 | 12.2 | 21.7 | 0.00 | 0.01 | 0.01 | 70 | 1009.0 |
| 20260505174523 | 54 | 360 | 10.4 | 16.5 | 0.00 | 0.01 | 0.01 | 71 | 1008.9 |
| 20260505173005 | 53 | 360 | 8.7 | 13.9 | 0.00 | 0.01 | 0.01 | 75 | 1008.8 |
| 20260505171553 | 53 | 360 | 11.3 | 16.5 | 0.00 | 0.01 | 0.01 | 76 | 1008.7 |
| 20260505170034 | 52 | 360 | 9.6 | 13.9 | 0.00 | 0.01 | 0.01 | 79 | 1008.6 |
| 20260505164508 | 51 | 360 | 6.1 | 9.6 | 0.00 | 0.01 | 0.01 | 81 | 1008.4 |
| 20260505163010 | 50 | 360 | 5.2 | 9.6 | 0.00 | 0.01 | 0.01 | 84 | 1008.5 |
| 20260505161603 | 49 | 360 | 7.0 | 10.4 | 0.00 | 0.01 | 0.01 | 84 | 1008.1 |
| 20260505153109 | 49 | 333 | 5.2 | 8.7 | 0.00 | 0.01 | 0.01 | 85 | 1008.0 |
| 20260505151538 | 47 | 360 | 4.3 | 7.0 | 0.00 | 0.01 | 0.01 | 85 | 1007.9 |
| 20260505140114 | 46 | 34 | 4.3 | 7.0 | 0.00 | 0.01 | 0.01 | 85 | 1007.1 |
| 20260505124548 | 45 | 47 | 1.7 | 7.0 | 0.01 | 0.01 | 0.01 | 84 | 1007.8 |
| 20260505123051 | 45 | 325 | 12.2 | 20.0 | 0.00 | 0.00 | 0.00 | 82 | 1008.2 |
| 20260505121544 | 45 | 360 | 12.2 | 26.1 | 0.00 | 0.00 | 0.00 | 81 | 1007.6 |
| 20260505120047 | 47 | 360 | 16.5 | 26.1 | 0.00 | 0.00 | 0.00 | 73 | 1007.4 |
| 20260505114544 | 49 | 360 | 18.2 | 28.7 | 0.00 | 0.00 | 0.00 | 69 | 1007.1 |
| 20260505113032 | 50 | 308 | 18.2 | 27.8 | 0.00 | 0.00 | 0.00 | 66 | 1007.3 |
| 20260505111529 | 50 | 360 | 9.6 | 16.5 | 0.00 | 0.00 | 0.00 | 73 | 1007.1 |
| 20260505101538 | 50 | 360 | 4.3 | 14.8 | 0.00 | 0.00 | 0.00 | 74 | 1007.2 |
| 20260505100021 | 50 | 327 | 7.8 | 14.8 | 0.00 | 0.00 | 0.00 | 73 | 1007.7 |
| 20260505094531 | 51 | 360 | 7.8 | 15.6 | 0.00 | 0.00 | 0.00 | 72 | 1007.2 |
| 20260505093018 | 50 | 360 | 6.1 | 12.2 | 0.00 | 0.00 | 0.00 | 73 | 1007.2 |
| 20260505091515 | 50 | 333 | 5.2 | 9.6 | 0.00 | 0.00 | 0.00 | 73 | 1007.2 |
| 20260505090019 | 49 | 360 | 4.3 | 7.0 | 0.00 | 0.00 | 0.00 | 74 | 1007.1 |
| 20260505084513 | 50 | 355 | 5.2 | 8.7 | 0.00 | 0.00 | 0.00 | 74 | 1007.5 |
| 20260505083017 | 50 | 360 | 5.2 | 7.0 | 0.00 | 0.00 | 0.00 | 74 | 1007.7 |
| 20260505081510 | 50 | 355 | 5.2 | 8.7 | 0.00 | 0.00 | 0.00 | 73 | 1008.0 |
| 20260505080008 | 50 | 350 | 5.2 | 8.7 | 0.00 | 0.00 | 0.00 | 73 | 1008.2 |
| 20260505074504 | 50 | 348 | 3.5 | 5.2 | 0.00 | 0.00 | 0.00 | 71 | 1008.2 |
| 20260505073002 | 50 | 53 | 1.7 | 5.2 | 0.00 | 0.00 | 0.00 | 70 | 1008.2 |
| 20260505071506 | 50 | 50 | 0.9 | 4.3 | 0.00 | 0.00 | 0.00 | 69 | 1008.0 |
| 20260505070104 | 50 | 32 | 4.3 | 7.8 | 0.00 | 0.00 | 0.00 | 70 | 1008.2 |
| 20260505064557 | 51 | 23 | 4.3 | 7.0 | 0.00 | 0.00 | 0.00 | 68 | 1008.4 |
| 20260505063055 | 51 | 333 | 2.6 | 7.0 | 0.00 | 0.00 | 0.00 | 66 | 1008.0 |
| 20260505061554 | 52 | 9 | 4.3 | 7.8 | 0.00 | 0.00 | 0.00 | 65 | 1007.3 |
| 20260505060053 | 52 | 5 | 6.1 | 10.4 | 0.00 | 0.00 | 0.00 | 65 | 1007.9 |
| 20260505054551 | 52 | 16 | 7.0 | 12.2 | 0.00 | 0.00 | 0.00 | 64 | 1008.5 |
| 20260505053049 | 52 | 32 | 4.3 | 9.6 | 0.00 | 0.00 | 0.00 | 64 | 1008.8 |
| 20260505051559 | 52 | 24 | 7.0 | 12.2 | 0.00 | 0.00 | 0.00 | 63 | 1008.6 |